createdAt,value
2018-08-07T00:01:42.345Z,22.30
2018-08-07T00:04:11.043Z,22.10
2018-08-07T00:06:39.655Z,22.00
2018-08-07T00:09:09.879Z,21.90
2018-08-07T00:11:38.528Z,21.90
2018-08-07T00:14:07.203Z,21.90
2018-08-07T00:16:35.804Z,21.90
2018-08-07T00:19:04.460Z,21.90
2018-08-07T00:21:33.122Z,22.00
2018-08-07T00:24:01.741Z,22.00
2018-08-07T00:26:30.448Z,22.00
2018-08-07T00:28:59.215Z,22.00
2018-08-07T00:31:27.899Z,22.00
2018-08-07T00:33:56.511Z,22.00
2018-08-07T00:36:25.147Z,22.00
2018-08-07T00:38:53.999Z,22.00
2018-08-07T00:41:22.552Z,21.90
2018-08-07T00:43:51.210Z,21.90
2018-08-07T00:46:19.886Z,21.90
2018-08-07T00:48:48.511Z,21.90
2018-08-07T00:51:17.150Z,21.90
2018-08-07T00:53:45.791Z,21.90
2018-08-07T00:56:14.382Z,21.80
2018-08-07T00:58:43.014Z,21.80
2018-08-07T01:01:11.708Z,21.80
2018-08-07T01:03:40.315Z,21.70
2018-08-07T01:06:08.865Z,21.60
2018-08-07T01:08:37.606Z,21.50
2018-08-07T01:11:06.448Z,21.60
2018-08-07T01:13:35.115Z,21.60
2018-08-07T01:16:03.731Z,21.60
2018-08-07T01:18:32.489Z,21.60
2018-08-07T01:21:01.119Z,21.60
2018-08-07T01:23:29.846Z,21.60
2018-08-07T01:25:58.491Z,21.60
2018-08-07T01:28:27.240Z,21.60
2018-08-07T01:30:55.908Z,21.60
2018-08-07T01:33:24.565Z,21.60
2018-08-07T01:35:53.179Z,21.70
2018-08-07T01:38:21.841Z,21.60
2018-08-07T01:40:50.450Z,21.50
2018-08-07T01:43:19.133Z,21.40
2018-08-07T01:45:47.800Z,21.40
2018-08-07T01:48:16.419Z,21.30
2018-08-07T01:50:45.022Z,21.20
2018-08-07T01:53:13.637Z,21.20
2018-08-07T01:55:42.185Z,21.20
2018-08-07T01:58:10.816Z,21.20
2018-08-07T02:00:39.508Z,21.10
2018-08-07T02:03:08.195Z,21.10
2018-08-07T02:05:36.827Z,21.10
2018-08-07T02:08:05.827Z,21.20
2018-08-07T02:10:34.520Z,21.10
2018-08-07T02:13:03.149Z,21.20
2018-08-07T02:15:31.873Z,21.20
2018-08-07T02:18:00.497Z,21.20
2018-08-07T02:20:29.080Z,21.10
2018-08-07T02:22:57.701Z,21.10
2018-08-07T02:25:26.312Z,21.10
2018-08-07T02:27:55.008Z,21.00
2018-08-07T02:30:23.762Z,20.90
2018-08-07T02:32:52.382Z,20.90
2018-08-07T02:35:21.051Z,20.90
2018-08-07T02:37:49.696Z,20.90
2018-08-07T02:40:18.311Z,20.90
2018-08-07T02:42:46.929Z,20.90
2018-08-07T02:45:16.963Z,20.90
2018-08-07T02:47:45.950Z,20.90
2018-08-07T02:50:17.388Z,20.80
2018-08-07T02:52:46.058Z,20.80
2018-08-07T02:55:14.896Z,20.80
2018-08-07T02:57:44.102Z,20.80
2018-08-07T03:00:15.582Z,20.80
2018-08-07T03:02:44.357Z,20.80
2018-08-07T03:05:13.080Z,20.70
2018-08-07T03:07:41.871Z,20.60
2018-08-07T03:10:10.693Z,20.50
2018-08-07T03:12:39.709Z,20.40
2018-08-07T03:15:11.354Z,20.30
2018-08-07T03:17:39.985Z,20.30
2018-08-07T03:20:08.977Z,20.20
2018-08-07T03:22:37.632Z,20.20
2018-08-07T03:25:07.513Z,20.10
2018-08-07T03:27:36.140Z,20.10
2018-08-07T03:30:07.814Z,20.10
2018-08-07T03:32:36.573Z,20.10
2018-08-07T03:35:05.619Z,20.10
2018-08-07T03:37:34.377Z,20.10
2018-08-07T03:40:03.070Z,20.10
2018-08-07T03:42:31.728Z,20.00
2018-08-07T03:45:00.289Z,20.00
2018-08-07T03:47:29.024Z,20.10
2018-08-07T03:49:57.682Z,20.10
2018-08-07T03:52:26.345Z,20.00
2018-08-07T03:54:54.944Z,20.00
2018-08-07T03:57:23.613Z,19.90
2018-08-07T03:59:52.173Z,19.90
2018-08-07T04:02:20.823Z,19.90
2018-08-07T04:04:49.521Z,19.90
2018-08-07T04:07:18.194Z,19.90
2018-08-07T04:09:46.788Z,19.90
2018-08-07T04:12:15.441Z,19.90
2018-08-07T04:14:44.125Z,19.90
2018-08-07T04:17:12.792Z,19.90
2018-08-07T04:19:41.334Z,19.90
2018-08-07T04:22:09.981Z,19.90
2018-08-07T04:24:38.640Z,19.90
2018-08-07T04:27:07.273Z,19.80
2018-08-07T04:29:35.996Z,19.80
2018-08-07T04:32:04.745Z,19.80
2018-08-07T04:34:33.332Z,19.80
2018-08-07T04:37:01.979Z,19.90
2018-08-07T04:39:30.569Z,19.90
2018-08-07T04:41:59.260Z,20.00
2018-08-07T04:44:27.852Z,20.00
2018-08-07T04:46:56.474Z,20.10
2018-08-07T04:49:25.233Z,20.20
2018-08-07T04:51:53.839Z,20.20
2018-08-07T04:54:22.487Z,20.20
2018-08-07T04:56:51.072Z,20.20
2018-08-07T04:59:19.630Z,20.20
2018-08-07T05:01:48.320Z,20.20
2018-08-07T05:04:16.900Z,20.30
2018-08-07T05:06:45.524Z,20.30
2018-08-07T05:09:14.148Z,20.40
2018-08-07T05:11:42.812Z,20.50
2018-08-07T05:14:11.442Z,20.50
2018-08-07T05:16:40.049Z,20.50
2018-08-07T05:19:08.676Z,20.60
2018-08-07T05:21:37.368Z,20.60
2018-08-07T05:24:06.052Z,20.70
2018-08-07T05:26:34.737Z,20.80
2018-08-07T05:29:03.485Z,20.90
2018-08-07T05:31:32.096Z,21.00
2018-08-07T05:34:00.668Z,21.10
2018-08-07T05:36:29.390Z,21.10
2018-08-07T05:38:58.164Z,21.20
2018-08-07T05:41:26.771Z,21.40
2018-08-07T05:43:55.364Z,21.50
2018-08-07T05:46:23.981Z,21.50
2018-08-07T05:48:52.580Z,21.70
2018-08-07T05:51:21.187Z,21.80
2018-08-07T05:53:49.448Z,21.90
2018-08-07T05:56:17.876Z,21.90
2018-08-07T05:58:46.326Z,22.00
2018-08-07T06:01:14.765Z,22.20
2018-08-07T06:03:43.215Z,22.30
2018-08-07T06:06:11.677Z,22.50
2018-08-07T06:08:40.165Z,22.60
2018-08-07T06:11:08.744Z,22.80
2018-08-07T06:13:37.305Z,22.90
2018-08-07T06:16:06.054Z,23.00
2018-08-07T06:18:34.719Z,23.10
2018-08-07T06:21:03.568Z,23.20
2018-08-07T06:23:32.225Z,23.40
2018-08-07T06:26:00.844Z,23.50
2018-08-07T06:28:29.502Z,23.60
2018-08-07T06:30:58.126Z,23.70
2018-08-07T06:33:26.796Z,23.80
2018-08-07T06:35:58.526Z,23.90
2018-08-07T06:38:27.177Z,24.10
2018-08-07T06:40:55.712Z,24.20
2018-08-07T06:43:24.349Z,24.30
2018-08-07T06:45:53.902Z,24.30
2018-08-07T06:48:23.139Z,24.40
2018-08-07T06:50:51.760Z,24.50
2018-08-07T06:53:20.432Z,24.50
2018-08-07T06:55:49.128Z,24.70
2018-08-07T06:58:18.111Z,24.80
2018-08-07T07:00:47.032Z,24.90
2018-08-07T07:03:15.632Z,25.10
2018-08-07T07:05:44.301Z,25.40
2018-08-07T07:08:12.924Z,25.70
2018-08-07T07:10:41.677Z,25.90
2018-08-07T07:13:10.294Z,26.20
2018-08-07T07:15:38.941Z,26.40
2018-08-07T07:18:07.659Z,26.60
2018-08-07T07:20:36.284Z,26.60
2018-08-07T07:23:04.971Z,26.80
2018-08-07T07:25:33.624Z,27.00
2018-08-07T07:28:02.238Z,27.30
2018-08-07T07:30:30.910Z,27.70
2018-08-07T07:32:59.508Z,28.00
2018-08-07T07:35:28.129Z,28.40
2018-08-07T07:37:56.794Z,28.80
2018-08-07T07:40:25.425Z,29.00
2018-08-07T07:42:53.976Z,29.20
2018-08-07T07:45:22.551Z,29.40
2018-08-07T07:47:51.112Z,29.70
2018-08-07T07:50:20.875Z,29.70
2018-08-07T07:52:49.551Z,29.90
2018-08-07T07:55:18.736Z,30.10
2018-08-07T07:57:52.998Z,30.20
2018-08-07T08:00:23.263Z,30.50
2018-08-07T08:02:52.017Z,30.80
2018-08-07T08:05:21.889Z,31.10
2018-08-07T08:07:50.307Z,31.00
2018-08-07T08:10:18.901Z,31.10
2018-08-07T08:12:47.579Z,31.40
2018-08-07T08:15:17.568Z,31.60
2018-08-07T08:17:46.786Z,31.80
2018-08-07T08:20:17.642Z,31.90
2018-08-07T08:22:46.532Z,32.20
2018-08-07T08:25:15.127Z,32.50
2018-08-07T08:27:43.739Z,32.90
2018-08-07T08:30:13.826Z,33.00
2018-08-07T08:32:42.714Z,33.20
2018-08-07T08:35:13.034Z,33.30
2018-08-07T08:37:42.114Z,33.30
2018-08-07T08:40:13.244Z,33.50
2018-08-07T08:42:41.932Z,33.70
2018-08-07T08:45:13.869Z,34.00
2018-08-07T08:47:43.775Z,34.40
2018-08-07T08:50:14.036Z,34.70
2018-08-07T08:52:43.120Z,35.30
2018-08-07T08:55:11.736Z,35.70
2018-08-07T08:57:41.013Z,36.00
2018-08-07T09:00:16.744Z,36.20
2018-08-07T09:02:46.082Z,36.50
2018-08-07T09:05:14.878Z,36.80
2018-08-07T09:07:43.960Z,37.10
2018-08-07T09:10:17.141Z,37.50
2018-08-07T09:12:45.921Z,37.40
2018-08-07T09:15:15.028Z,37.40
2018-08-07T09:17:43.739Z,37.60
2018-08-07T09:20:19.771Z,37.40
2018-08-07T09:22:48.379Z,37.20
2018-08-07T09:25:17.187Z,37.50
2018-08-07T09:27:45.860Z,37.80
2018-08-07T09:30:18.772Z,38.20
2018-08-07T09:32:48.370Z,38.40
2018-08-07T09:35:17.716Z,38.20
2018-08-07T09:37:46.600Z,38.10
2018-08-07T09:40:16.107Z,38.00
2018-08-07T09:42:46.305Z,37.70
2018-08-07T09:45:17.553Z,37.70
2018-08-07T09:47:46.743Z,37.50
2018-08-07T09:50:16.227Z,37.40
2018-08-07T09:52:45.071Z,37.70
2018-08-07T09:55:13.751Z,38.10
2018-08-07T09:57:42.548Z,38.20
2018-08-07T10:00:21.979Z,37.90
2018-08-07T10:02:52.387Z,37.40
2018-08-07T10:05:22.712Z,37.10
2018-08-07T10:07:51.299Z,36.90
2018-08-07T10:10:20.428Z,36.70
2018-08-07T10:12:49.049Z,36.40
2018-08-07T10:15:17.854Z,36.10
2018-08-07T10:17:46.519Z,35.80
2018-08-07T10:20:15.698Z,35.40
2018-08-07T10:22:44.516Z,35.10
2018-08-07T10:25:14.391Z,34.70
2018-08-07T10:27:44.065Z,34.50
2018-08-07T10:30:15.148Z,34.40
2018-08-07T10:32:43.935Z,34.20
2018-08-07T10:35:13.020Z,33.80
2018-08-07T10:37:47.390Z,33.40
2018-08-07T10:40:18.037Z,33.20
2018-08-07T10:42:46.691Z,33.10
2018-08-07T10:45:16.567Z,33.00
2018-08-07T10:47:45.350Z,32.90
2018-08-07T10:50:15.806Z,32.90
2018-08-07T10:52:44.683Z,32.80
2018-08-07T10:55:13.616Z,32.20
2018-08-07T10:57:43.998Z,31.50
2018-08-07T11:00:18.657Z,31.10
2018-08-07T11:02:48.280Z,30.80
2018-08-07T11:05:17.298Z,30.50
2018-08-07T11:07:45.941Z,30.30
2018-08-07T11:10:15.025Z,30.20
2018-08-07T11:12:43.677Z,30.20
2018-08-07T11:15:20.346Z,30.10
2018-08-07T11:17:49.867Z,30.00
2018-08-07T11:20:18.538Z,29.90
2018-08-07T11:22:48.473Z,29.80
2018-08-07T11:25:18.263Z,29.80
2018-08-07T11:27:46.845Z,29.80
2018-08-07T11:30:33.606Z,29.70
2018-08-07T11:33:02.973Z,29.70
2018-08-07T11:35:31.592Z,29.80
2018-08-07T11:38:01.208Z,29.90
2018-08-07T11:40:29.843Z,29.80
2018-08-07T11:42:58.899Z,29.50
2018-08-07T11:45:29.036Z,29.40
2018-08-07T11:47:57.772Z,29.20
2018-08-07T11:50:27.422Z,29.00
2018-08-07T11:52:56.124Z,28.80
2018-08-07T11:55:25.280Z,28.60
2018-08-07T11:58:00.686Z,28.40
2018-08-07T12:00:39.629Z,28.30
2018-08-07T12:03:10.827Z,28.30
2018-08-07T12:05:39.482Z,28.50
2018-08-07T12:08:08.579Z,28.90
2018-08-07T12:10:37.152Z,29.70
2018-08-07T12:13:06.083Z,30.50
2018-08-07T12:15:34.731Z,31.10
2018-08-07T12:18:03.359Z,31.10
2018-08-07T12:20:32.020Z,30.80
2018-08-07T12:23:00.584Z,30.50
2018-08-07T12:25:29.197Z,30.20
2018-08-07T12:27:57.850Z,29.80
2018-08-07T12:30:28.726Z,29.80
2018-08-07T12:33:05.536Z,29.90
2018-08-07T12:35:34.096Z,30.20
2018-08-07T12:38:02.669Z,30.40
2018-08-07T12:40:32.395Z,30.20
2018-08-07T12:43:03.271Z,29.80
2018-08-07T12:45:32.049Z,29.50
2018-08-07T12:48:00.780Z,29.30
2018-08-07T12:50:29.450Z,29.00
2018-08-07T12:52:58.200Z,28.90
2018-08-07T12:55:26.893Z,28.90
2018-08-07T12:57:55.640Z,28.90
2018-08-07T13:00:26.628Z,28.80
2018-08-07T13:02:56.625Z,28.70
2018-08-07T13:05:25.235Z,28.60
2018-08-07T13:07:53.889Z,28.60
2018-08-07T13:10:23.754Z,28.50
2018-08-07T13:12:53.137Z,28.50
2018-08-07T13:15:22.300Z,28.40
2018-08-07T13:17:51.059Z,28.40
2018-08-07T13:20:19.738Z,28.70
2018-08-07T13:22:48.688Z,30.00
2018-08-07T13:25:19.648Z,31.20
2018-08-07T13:27:48.243Z,32.60
2018-08-07T13:30:20.076Z,33.80
2018-08-07T13:32:48.855Z,34.50
2018-08-07T13:35:17.891Z,34.90
2018-08-07T13:37:47.656Z,35.50
2018-08-07T13:40:18.617Z,36.70
2018-08-07T13:42:48.327Z,37.30
2018-08-07T13:45:21.963Z,37.30
2018-08-07T13:47:50.575Z,37.90
2018-08-07T13:50:22.436Z,38.20
2018-08-07T13:52:51.667Z,38.40
2018-08-07T13:55:21.292Z,38.90
2018-08-07T13:57:49.896Z,39.40
2018-08-07T14:00:23.167Z,39.30
2018-08-07T14:02:52.372Z,39.70
2018-08-07T14:05:21.546Z,41.00
2018-08-07T14:07:51.167Z,42.20
2018-08-07T14:10:20.612Z,43.20
2018-08-07T14:12:49.287Z,43.40
2018-08-07T14:15:18.560Z,43.70
2018-08-07T14:17:47.383Z,44.00
2018-08-07T14:20:16.837Z,43.20
2018-08-07T14:22:45.706Z,42.20
2018-08-07T14:25:16.137Z,41.10
2018-08-07T14:27:44.825Z,40.80
2018-08-07T14:30:16.370Z,41.00
2018-08-07T14:32:44.987Z,40.60
2018-08-07T14:35:13.716Z,40.00
2018-08-07T14:37:44.469Z,39.70
2018-08-07T14:40:14.476Z,39.00
2018-08-07T14:42:44.348Z,39.20
2018-08-07T14:45:13.963Z,39.30
2018-08-07T14:47:43.012Z,38.60
2018-08-07T14:50:12.972Z,38.60
2018-08-07T14:52:41.823Z,38.40
2018-08-07T14:55:11.031Z,38.20
2018-08-07T14:57:40.116Z,38.20
2018-08-07T15:00:11.232Z,38.50
2018-08-07T15:02:39.825Z,38.60
2018-08-07T15:05:08.738Z,38.10
2018-08-07T15:07:37.415Z,38.20
2018-08-07T15:10:08.102Z,38.00
2018-08-07T15:12:36.793Z,37.40
2018-08-07T15:15:07.949Z,36.40
2018-08-07T15:17:36.622Z,35.70
2018-08-07T15:20:05.723Z,35.40
2018-08-07T15:22:34.329Z,35.50
2018-08-07T15:25:02.888Z,35.60
2018-08-07T15:27:31.557Z,35.30
2018-08-07T15:30:00.154Z,35.30
2018-08-07T15:32:28.801Z,35.60
2018-08-07T15:34:57.416Z,35.70
2018-08-07T15:37:26.025Z,35.50
2018-08-07T15:39:54.612Z,35.00
2018-08-07T15:42:23.168Z,34.60
2018-08-07T15:44:51.709Z,34.50
2018-08-07T15:47:20.362Z,34.50
2018-08-07T15:49:49.041Z,34.80
2018-08-07T15:52:17.721Z,34.80
2018-08-07T15:54:46.305Z,34.60
2018-08-07T15:57:14.906Z,34.30
2018-08-07T15:59:43.471Z,34.00
2018-08-07T16:02:11.965Z,33.60
2018-08-07T16:04:40.552Z,33.30
2018-08-07T16:07:09.161Z,33.00
2018-08-07T16:09:37.790Z,32.80
2018-08-07T16:12:06.735Z,32.70
2018-08-07T16:14:35.349Z,32.50
2018-08-07T16:17:03.908Z,32.50
2018-08-07T16:19:32.532Z,32.50
2018-08-07T16:22:01.126Z,32.60
2018-08-07T16:24:29.832Z,32.70
2018-08-07T16:26:58.424Z,32.70
2018-08-07T16:29:27.136Z,32.70
2018-08-07T16:31:55.840Z,32.60
2018-08-07T16:34:24.559Z,32.60
2018-08-07T16:36:53.229Z,32.30
2018-08-07T16:39:21.809Z,32.20
2018-08-07T16:41:50.393Z,32.00
2018-08-07T16:44:18.985Z,31.80
2018-08-07T16:46:47.509Z,31.70
2018-08-07T16:49:16.099Z,31.50
2018-08-07T16:51:44.756Z,31.30
2018-08-07T16:54:13.381Z,31.00
2018-08-07T16:56:41.931Z,31.00
2018-08-07T16:59:10.485Z,30.90
2018-08-07T17:01:39.067Z,30.90
2018-08-07T17:04:07.766Z,30.90
2018-08-07T17:06:36.316Z,31.00
2018-08-07T17:09:08.683Z,31.00
2018-08-07T17:11:37.353Z,31.00
2018-08-07T17:14:06.484Z,31.00
2018-08-07T17:16:35.025Z,31.00
2018-08-07T17:19:03.622Z,30.90
2018-08-07T17:21:32.194Z,30.90
2018-08-07T17:24:00.950Z,30.80
2018-08-07T17:26:29.580Z,30.70
2018-08-07T17:28:58.229Z,30.60
2018-08-07T17:31:26.842Z,30.50
2018-08-07T17:33:55.431Z,30.40
2018-08-07T17:36:24.101Z,30.30
2018-08-07T17:38:52.681Z,30.20
2018-08-07T17:41:21.292Z,30.10
2018-08-07T17:43:49.926Z,30.00
2018-08-07T17:46:18.548Z,29.90
2018-08-07T17:48:47.156Z,29.80
2018-08-07T17:51:15.809Z,29.70
2018-08-07T17:53:44.409Z,29.50
2018-08-07T17:56:13.035Z,29.40
2018-08-07T17:58:41.615Z,29.30
2018-08-07T18:01:10.196Z,29.20
2018-08-07T18:03:38.792Z,29.00
2018-08-07T18:06:08.090Z,29.00
2018-08-07T18:08:36.695Z,28.90
2018-08-07T18:11:05.399Z,29.00
2018-08-07T18:13:33.983Z,29.20
2018-08-07T18:16:02.539Z,29.40
2018-08-07T18:18:31.240Z,29.40
2018-08-07T18:20:59.912Z,29.30
2018-08-07T18:23:28.495Z,29.20
2018-08-07T18:25:57.148Z,29.10
2018-08-07T18:28:25.788Z,28.90
2018-08-07T18:30:54.362Z,28.80
2018-08-07T18:33:22.926Z,28.70
2018-08-07T18:35:51.536Z,28.60
2018-08-07T18:38:20.213Z,28.50
2018-08-07T18:40:48.795Z,28.40
2018-08-07T18:43:17.361Z,28.30
2018-08-07T18:45:45.939Z,28.20
2018-08-07T18:48:14.697Z,28.00
2018-08-07T18:50:43.269Z,27.90
2018-08-07T18:53:11.817Z,27.70
2018-08-07T18:55:40.399Z,27.40
2018-08-07T18:58:09.062Z,27.10
2018-08-07T19:00:37.675Z,26.90
2018-08-07T19:03:06.285Z,26.80
2018-08-07T19:05:35.009Z,26.70
2018-08-07T19:08:03.611Z,26.60
2018-08-07T19:10:32.261Z,26.50
2018-08-07T19:13:00.845Z,26.40
2018-08-07T19:15:29.471Z,26.20
2018-08-07T19:17:58.142Z,26.20
2018-08-07T19:20:26.771Z,26.20
2018-08-07T19:22:55.327Z,26.20
2018-08-07T19:25:23.921Z,26.10
2018-08-07T19:27:52.530Z,26.00
2018-08-07T19:30:22.980Z,25.80
2018-08-07T19:32:51.577Z,25.70
2018-08-07T19:35:20.288Z,25.70
2018-08-07T19:37:48.956Z,25.60
2018-08-07T19:40:18.611Z,25.50
2018-08-07T19:42:47.943Z,25.40
2018-08-07T19:45:16.951Z,25.30
2018-08-07T19:48:19.947Z,25.20
2018-08-07T19:50:48.419Z,25.10
2018-08-07T19:53:16.901Z,25.00
2018-08-07T19:55:45.538Z,24.90
2018-08-07T19:58:13.900Z,24.90
2018-08-07T20:00:42.343Z,24.80
2018-08-07T20:03:10.769Z,24.70
2018-08-07T20:05:39.216Z,24.60
2018-08-07T20:08:07.716Z,24.60
2018-08-07T20:10:36.177Z,24.60
2018-08-07T20:13:04.750Z,24.50
2018-08-07T20:15:33.229Z,24.40
2018-08-07T20:18:01.740Z,24.40
2018-08-07T20:20:30.237Z,24.40
2018-08-07T20:22:58.748Z,24.40
2018-08-07T20:25:27.332Z,24.30
2018-08-07T20:27:56.654Z,24.20
2018-08-07T20:30:25.588Z,24.20
2018-08-07T20:32:56.549Z,24.20
2018-08-07T20:35:25.394Z,24.10
2018-08-07T20:37:54.242Z,24.10
2018-08-07T20:40:25.075Z,24.00
2018-08-07T20:42:54.917Z,23.90
2018-08-07T20:45:23.708Z,23.90
2018-08-07T20:47:52.816Z,23.80
2018-08-07T20:50:22.764Z,23.60
2018-08-07T20:52:52.076Z,23.40
2018-08-07T20:55:20.768Z,23.40
2018-08-07T20:57:49.641Z,23.30
2018-08-07T21:00:20.933Z,23.30
2018-08-07T21:02:50.285Z,23.20
2018-08-07T21:05:19.233Z,23.20
2018-08-07T21:07:47.994Z,23.20
2018-08-07T21:10:25.835Z,23.20
2018-08-07T21:12:55.096Z,23.20
2018-08-07T21:15:23.943Z,23.20
2018-08-07T21:17:52.704Z,23.10
2018-08-07T21:20:22.294Z,23.10
2018-08-07T21:22:51.106Z,23.10
2018-08-07T21:25:21.657Z,23.10
2018-08-07T21:27:52.724Z,23.10
2018-08-07T21:30:23.228Z,23.00
2018-08-07T21:32:51.928Z,23.00
2018-08-07T21:35:20.618Z,23.00
2018-08-07T21:37:49.440Z,22.90
2018-08-07T21:40:19.670Z,22.70
2018-08-07T21:42:49.433Z,22.60
2018-08-07T21:45:18.727Z,22.60
2018-08-07T21:47:47.443Z,22.50
2018-08-07T21:50:18.451Z,22.60
2018-08-07T21:52:47.181Z,22.60
2018-08-07T21:55:17.383Z,22.70
2018-08-07T21:57:46.148Z,22.60
2018-08-07T22:00:19.652Z,22.60
2018-08-07T22:02:49.260Z,22.60
2018-08-07T22:05:18.122Z,22.50
2018-08-07T22:07:46.769Z,22.50
2018-08-07T22:10:18.152Z,22.40
2018-08-07T22:12:47.121Z,22.30
2018-08-07T22:15:16.820Z,22.20
2018-08-07T22:17:45.568Z,22.10
2018-08-07T22:20:14.851Z,22.10
2018-08-07T22:22:43.649Z,22.10
2018-08-07T22:25:12.352Z,22.00
2018-08-07T22:27:41.019Z,22.10
2018-08-07T22:30:13.068Z,22.10
2018-08-07T22:32:41.745Z,21.90
2018-08-07T22:35:10.722Z,21.80
2018-08-07T22:37:40.445Z,21.80
2018-08-07T22:40:10.683Z,21.80
2018-08-07T22:42:39.551Z,21.70
2018-08-07T22:45:10.488Z,21.60
2018-08-07T22:47:39.466Z,21.50
2018-08-07T22:50:09.715Z,21.50
2018-08-07T22:52:39.224Z,21.40
2018-08-07T22:55:09.815Z,21.30
2018-08-07T22:57:38.541Z,21.20
2018-08-07T23:00:13.047Z,21.20
2018-08-07T23:02:42.568Z,21.20
2018-08-07T23:05:12.166Z,21.20
2018-08-07T23:07:40.957Z,21.10
2018-08-07T23:10:13.258Z,21.10
2018-08-07T23:12:42.359Z,21.10
2018-08-07T23:15:13.750Z,21.10
2018-08-07T23:17:42.773Z,21.00
2018-08-07T23:20:13.552Z,21.00
2018-08-07T23:22:42.236Z,21.00
2018-08-07T23:25:11.853Z,21.00
2018-08-07T23:27:40.700Z,21.10
2018-08-07T23:30:12.032Z,21.10
2018-08-07T23:32:41.186Z,21.10
2018-08-07T23:35:10.916Z,21.10
2018-08-07T23:37:39.612Z,21.00
2018-08-07T23:40:10.324Z,21.00
2018-08-07T23:42:39.643Z,20.90
2018-08-07T23:45:10.272Z,20.90
2018-08-07T23:47:38.976Z,20.90
2018-08-07T23:50:08.252Z,20.90
2018-08-07T23:52:36.863Z,20.80
2018-08-07T23:55:06.338Z,20.90
2018-08-07T23:57:35.337Z,20.90
